Terminal Aerodrome Forecast
Issued by NWS

Home | Current Version | Previous Version | Text Only | Print | Product List | Glossary On
Versions: 1 2 3 4 5 6 7 8 9 10 11 12 13 14
697
FTUS43 KEAX 140538
TAFSTJ
TAF
KSTJ 140538Z 1406/1506 12011KT P6SM OVC060
     FM140900 13013KT P6SM OVC030
     FM141200 16012KT P6SM OVC018
     FM141500 18010KT P6SM BKN025
     FM141700 23010KT P6SM SCT030=

USA.gov is the U.S. government's official web portal to all federal, state and local government web resources and services.